createdAt,value
2022-09-28T00:01:24.001Z,65.00
2022-09-28T00:03:54.597Z,65.81
2022-09-28T00:06:27.235Z,61.29
2022-09-28T00:08:55.098Z,56.24
2022-09-28T00:11:29.227Z,55.65
2022-09-28T00:14:02.458Z,56.90
2022-09-28T00:16:34.508Z,57.84
2022-09-28T00:19:12.234Z,59.35
2022-09-28T00:21:41.835Z,60.59
2022-09-28T00:24:13.272Z,61.34
2022-09-28T00:26:42.171Z,64.83
2022-09-28T00:29:29.190Z,65.20
2022-09-28T00:32:03.140Z,60.18
2022-09-28T00:34:38.181Z,55.09
2022-09-28T00:37:09.045Z,54.92
2022-09-28T00:39:38.707Z,56.19
2022-09-28T00:42:32.955Z,57.23
2022-09-28T00:45:04.107Z,58.61
2022-09-28T00:47:39.651Z,60.17
2022-09-28T00:50:21.267Z,61.37
2022-09-28T00:53:01.794Z,65.88
2022-09-28T00:55:40.071Z,65.53
2022-09-28T00:58:13.195Z,60.64
2022-09-28T01:00:41.155Z,54.75
2022-09-28T01:03:14.364Z,54.42
2022-09-28T01:05:42.309Z,55.57
2022-09-28T01:08:11.962Z,56.63
2022-09-28T01:10:40.986Z,57.64
2022-09-28T01:13:09.034Z,58.59
2022-09-28T01:15:49.212Z,59.77
2022-09-28T01:18:22.696Z,60.14
2022-09-28T01:21:02.442Z,61.25
2022-09-28T01:24:10.288Z,66.25
2022-09-28T01:26:51.206Z,64.58
2022-09-28T01:29:21.751Z,59.65
2022-09-28T01:32:25.951Z,54.87
2022-09-28T01:35:09.916Z,55.06
2022-09-28T01:37:55.238Z,56.55
2022-09-28T01:40:25.357Z,57.47
2022-09-28T01:43:01.257Z,58.25
2022-09-28T01:45:33.414Z,59.13
2022-09-28T01:48:04.853Z,59.94
2022-09-28T01:50:38.066Z,61.18
2022-09-28T01:53:38.937Z,64.77
2022-09-28T01:56:14.524Z,65.40
2022-09-28T01:58:44.240Z,59.68
2022-09-28T02:01:16.826Z,54.72
2022-09-28T02:03:51.202Z,54.94
2022-09-28T02:06:25.508Z,55.70
2022-09-28T02:08:58.217Z,57.28
2022-09-28T02:11:37.837Z,58.15
2022-09-28T02:14:10.090Z,59.75
2022-09-28T02:16:43.971Z,60.51
2022-09-28T02:19:18.162Z,60.84
2022-09-28T02:21:54.029Z,61.33
2022-09-28T02:24:55.667Z,66.57
2022-09-28T02:27:35.812Z,65.60
2022-09-28T02:30:05.536Z,59.70
2022-09-28T02:32:35.627Z,54.79
2022-09-28T02:35:03.779Z,54.53
2022-09-28T02:37:32.373Z,56.10
2022-09-28T02:40:05.239Z,57.12
2022-09-28T02:42:54.257Z,58.16
2022-09-28T02:45:41.481Z,59.52
2022-09-28T02:48:43.923Z,60.23
2022-09-28T02:51:24.009Z,61.37
2022-09-28T02:54:18.916Z,66.66
2022-09-28T02:57:03.971Z,64.81
2022-09-28T02:59:46.945Z,59.08
2022-09-28T03:02:25.999Z,54.49
2022-09-28T03:05:11.467Z,55.02
2022-09-28T03:07:52.339Z,56.09
2022-09-28T03:10:31.107Z,57.04
2022-09-28T03:12:59.274Z,58.92
2022-09-28T03:15:30.559Z,60.93
2022-09-28T03:17:58.976Z,65.13
2022-09-28T03:20:28.275Z,64.41
2022-09-28T03:23:20.093Z,59.84
2022-09-28T03:25:44.347Z,55.12
2022-09-28T03:28:12.225Z,54.98
2022-09-28T03:30:41.687Z,56.35
2022-09-28T03:33:10.861Z,57.95
2022-09-28T03:35:40.199Z,58.83
2022-09-28T03:38:10.715Z,60.33
2022-09-28T03:40:39.034Z,61.20
2022-09-28T03:43:07.365Z,65.11
2022-09-28T03:45:35.561Z,66.11
2022-09-28T03:48:03.777Z,60.81
2022-09-28T03:50:31.877Z,56.35
2022-09-28T03:53:05.155Z,55.23
2022-09-28T03:55:32.995Z,56.77
2022-09-28T03:58:01.147Z,57.81
2022-09-28T04:00:31.103Z,59.17
2022-09-28T04:02:59.230Z,60.42
2022-09-28T04:05:27.217Z,60.80
2022-09-28T04:07:58.565Z,61.52
2022-09-28T04:10:26.795Z,65.82
2022-09-28T04:12:58.157Z,65.87
2022-09-28T04:15:26.061Z,60.37
2022-09-28T04:17:54.024Z,55.39
2022-09-28T04:20:48.296Z,54.83
2022-09-28T04:23:16.871Z,56.07
2022-09-28T04:25:47.818Z,57.94
2022-09-28T04:28:34.389Z,59.04
2022-09-28T04:31:02.280Z,59.73
2022-09-28T04:33:31.683Z,61.14
2022-09-28T04:36:00.621Z,65.09
2022-09-28T04:38:51.393Z,65.17
2022-09-28T04:41:18.610Z,60.48
2022-09-28T04:43:47.456Z,55.23
2022-09-28T04:46:20.342Z,54.95
2022-09-28T04:49:05.465Z,56.35
2022-09-28T04:51:50.151Z,57.56
2022-09-28T04:54:21.772Z,58.94
2022-09-28T04:56:49.945Z,60.00
2022-09-28T04:59:39.589Z,60.76
2022-09-28T05:02:08.030Z,65.31
2022-09-28T05:04:41.686Z,65.31
2022-09-28T05:07:17.776Z,60.06
2022-09-28T05:09:46.261Z,56.01
2022-09-28T05:12:17.176Z,55.74
2022-09-28T05:14:45.177Z,56.94
2022-09-28T05:17:13.162Z,58.79
2022-09-28T05:20:10.485Z,59.62
2022-09-28T05:22:38.458Z,61.27
2022-09-28T05:25:09.436Z,65.75
2022-09-28T05:27:48.901Z,65.65
2022-09-28T05:30:43.674Z,60.52
2022-09-28T05:33:39.016Z,55.53
2022-09-28T05:36:14.629Z,55.87
2022-09-28T05:38:43.781Z,57.47
2022-09-28T05:41:13.269Z,59.25
2022-09-28T05:43:45.698Z,60.03
2022-09-28T05:46:14.738Z,60.82
2022-09-28T05:48:43.181Z,65.53
2022-09-28T05:51:11.262Z,64.90
2022-09-28T05:53:39.155Z,59.87
2022-09-28T05:56:09.306Z,55.38
2022-09-28T05:58:39.716Z,55.44
2022-09-28T06:01:12.661Z,57.35
2022-09-28T06:03:40.666Z,58.72
2022-09-28T06:06:09.150Z,59.67
2022-09-28T06:08:37.565Z,60.09
2022-09-28T06:11:27.147Z,60.78
2022-09-28T06:13:56.298Z,64.81
2022-09-28T06:16:31.007Z,64.20
2022-09-28T06:19:01.579Z,60.21
2022-09-28T06:21:52.383Z,55.16
2022-09-28T06:24:20.323Z,55.08
2022-09-28T06:26:48.716Z,56.84
2022-09-28T06:29:19.871Z,57.79
2022-09-28T06:31:48.517Z,58.23
2022-09-28T06:34:18.055Z,59.94
2022-09-28T06:36:46.139Z,61.15
2022-09-28T06:39:14.386Z,65.97
2022-09-28T06:41:42.495Z,65.88
2022-09-28T06:44:18.007Z,60.93
2022-09-28T06:47:04.810Z,56.19
2022-09-28T06:49:58.116Z,56.63
2022-09-28T06:52:29.559Z,57.83
2022-09-28T06:55:18.170Z,59.54
2022-09-28T06:57:59.398Z,60.95
2022-09-28T07:00:31.092Z,64.74
2022-09-28T07:02:59.284Z,64.08
2022-09-28T07:05:59.387Z,60.25
2022-09-28T07:09:03.787Z,56.06
2022-09-28T07:12:00.108Z,56.32
2022-09-28T07:14:47.873Z,56.84
2022-09-28T07:17:16.618Z,58.07
2022-09-28T07:19:44.663Z,58.18
2022-09-28T07:22:18.579Z,57.76
2022-09-28T07:24:48.991Z,58.70
2022-09-28T07:27:38.045Z,58.77
2022-09-28T07:30:28.274Z,59.22
2022-09-28T07:33:17.632Z,60.43
2022-09-28T07:36:08.504Z,60.91
2022-09-28T07:38:36.473Z,61.05
2022-09-28T07:41:11.661Z,61.35
2022-09-28T07:43:49.788Z,65.96
2022-09-28T07:46:18.040Z,63.79
2022-09-28T07:48:58.396Z,57.79
2022-09-28T07:51:58.863Z,55.35
2022-09-28T07:54:31.269Z,56.30
2022-09-28T07:56:59.461Z,56.41
2022-09-28T07:59:41.272Z,57.66
2022-09-28T08:02:28.128Z,57.89
2022-09-28T08:04:56.472Z,58.23
2022-09-28T08:07:25.709Z,57.45
2022-09-28T08:10:06.176Z,57.13
2022-09-28T08:12:41.327Z,58.39
2022-09-28T08:15:37.179Z,56.91
2022-09-28T08:18:17.216Z,56.92
2022-09-28T08:21:04.889Z,56.97
2022-09-28T08:23:37.074Z,57.08
2022-09-28T08:26:15.184Z,59.02
2022-09-28T08:28:46.823Z,57.99
2022-09-28T08:31:51.715Z,56.45
2022-09-28T08:34:49.148Z,56.10
2022-09-28T08:37:49.861Z,57.96
2022-09-28T08:41:04.464Z,57.40
2022-09-28T08:43:52.583Z,56.53
2022-09-28T08:46:48.816Z,56.21
2022-09-28T08:49:57.098Z,57.10
2022-09-28T08:52:53.342Z,56.37
2022-09-28T08:55:48.032Z,54.94
2022-09-28T08:58:24.505Z,55.93
2022-09-28T09:00:54.671Z,56.54
2022-09-28T09:03:32.587Z,55.19
2022-09-28T09:07:00.738Z,53.43
2022-09-28T09:09:45.733Z,53.75
2022-09-28T09:12:41.880Z,54.13
2022-09-28T09:20:03.006Z,51.56
2022-09-28T09:23:00.849Z,51.00
2022-09-28T09:25:41.085Z,50.13
2022-09-28T09:28:32.800Z,48.25
2022-09-28T09:31:43.209Z,48.49
2022-09-28T09:34:27.254Z,48.62
2022-09-28T09:37:42.361Z,48.61
2022-09-28T09:41:08.812Z,48.94
2022-09-28T09:44:57.270Z,48.70
2022-09-28T09:47:55.599Z,48.91
2022-09-28T09:50:57.898Z,50.13
2022-09-28T09:53:38.389Z,49.59
2022-09-28T09:56:14.756Z,49.76
2022-09-28T09:59:12.122Z,50.18
2022-09-28T10:01:58.587Z,50.40
2022-09-28T10:04:44.610Z,49.60
2022-09-28T10:07:25.937Z,48.95
2022-09-28T10:09:57.049Z,48.75
2022-09-28T10:12:40.692Z,49.05
2022-09-28T10:15:14.998Z,48.75
2022-09-28T10:17:49.831Z,49.68
2022-09-28T10:20:38.594Z,48.93
2022-09-28T10:23:31.649Z,50.03
2022-09-28T10:26:25.319Z,50.40
2022-09-28T10:29:13.140Z,50.36
2022-09-28T10:31:48.310Z,50.69
2022-09-28T10:34:28.694Z,51.09
2022-09-28T10:37:05.472Z,49.99
2022-09-28T10:39:55.758Z,50.33
2022-09-28T10:42:30.629Z,50.11
2022-09-28T10:45:04.831Z,51.09
2022-09-28T10:47:43.908Z,51.30
2022-09-28T10:50:23.230Z,51.65
2022-09-28T10:53:11.354Z,51.86
2022-09-28T10:56:18.860Z,51.96
2022-09-28T10:58:48.342Z,52.49
2022-09-28T11:01:31.929Z,53.18
2022-09-28T11:04:05.358Z,54.08
2022-09-28T11:06:38.901Z,54.51
2022-09-28T11:09:21.198Z,54.90
2022-09-28T11:11:49.150Z,55.51
2022-09-28T11:14:44.387Z,55.63
2022-09-28T11:17:30.515Z,56.81
2022-09-28T11:20:27.789Z,57.75
2022-09-28T11:23:00.578Z,58.86
2022-09-28T11:25:32.650Z,59.68
2022-09-28T11:28:04.496Z,60.70
2022-09-28T11:30:54.771Z,64.46
2022-09-28T11:34:12.838Z,67.63
2022-09-28T11:37:04.801Z,59.73
2022-09-28T11:39:32.637Z,56.23
2022-09-28T11:42:16.101Z,56.25
2022-09-28T11:44:52.805Z,56.98
2022-09-28T11:47:41.798Z,57.54
2022-09-28T11:50:27.971Z,58.92
2022-09-28T11:53:17.433Z,65.38
2022-09-28T11:55:50.131Z,65.46
2022-09-28T11:58:38.183Z,61.06
2022-09-28T12:01:31.289Z,56.68
2022-09-28T12:04:28.930Z,55.11
2022-09-28T12:07:00.247Z,56.60
2022-09-28T12:10:05.184Z,57.52
2022-09-28T12:12:38.892Z,57.99
2022-09-28T12:18:56.507Z,60.31
2022-09-28T12:21:24.374Z,60.51
2022-09-28T12:23:56.146Z,65.85
2022-09-28T12:26:37.301Z,65.89
2022-09-28T12:29:13.158Z,60.65
2022-09-28T12:32:05.009Z,56.58
2022-09-28T12:34:32.928Z,55.92
2022-09-28T12:37:03.529Z,58.04
2022-09-28T12:39:58.068Z,59.75
2022-09-28T12:42:54.689Z,60.91
2022-09-28T12:46:09.917Z,60.75
2022-09-28T12:52:06.706Z,68.66
2022-09-28T12:54:59.164Z,65.68
2022-09-28T12:57:33.092Z,61.35
2022-09-28T13:00:24.749Z,57.45
2022-09-28T13:03:07.130Z,55.56
2022-09-28T13:05:56.826Z,57.37
2022-09-28T13:08:53.412Z,58.92
2022-09-28T13:11:34.366Z,59.84
2022-09-28T13:14:29.019Z,60.91
2022-09-28T13:17:01.272Z,61.05
2022-09-28T13:19:38.510Z,61.42
2022-09-28T13:22:44.529Z,66.55
2022-09-28T13:25:22.750Z,63.90
2022-09-28T13:27:52.834Z,59.84
2022-09-28T13:30:21.871Z,55.89
2022-09-28T13:32:50.047Z,54.54
2022-09-28T13:35:21.613Z,56.66
2022-09-28T13:38:15.314Z,58.19
2022-09-28T13:41:05.270Z,60.19
2022-09-28T13:43:42.150Z,60.13
2022-09-28T13:46:36.328Z,61.71
2022-09-28T13:49:19.266Z,67.12
2022-09-28T13:52:02.863Z,66.22
2022-09-28T13:54:41.349Z,61.25
2022-09-28T13:57:10.029Z,56.29
2022-09-28T13:59:51.521Z,57.00
2022-09-28T14:02:31.754Z,58.87
2022-09-28T14:05:06.541Z,58.53
2022-09-28T14:07:34.468Z,60.26
2022-09-28T14:10:21.474Z,60.63
2022-09-28T14:12:53.528Z,61.08
2022-09-28T14:15:30.693Z,60.95
2022-09-28T14:17:58.530Z,65.99
2022-09-28T14:20:27.546Z,65.96
2022-09-28T14:23:00.973Z,61.82
2022-09-28T14:25:32.093Z,59.89
2022-09-28T14:28:29.986Z,54.18
2022-09-28T14:30:59.682Z,51.62
2022-09-28T14:33:35.150Z,51.41
2022-09-28T14:36:06.680Z,49.15
2022-09-28T14:38:56.550Z,48.66
2022-09-28T14:41:35.112Z,42.99
2022-09-28T14:44:08.422Z,42.21
2022-09-28T14:46:45.429Z,39.43
2022-09-28T14:49:24.921Z,37.69
2022-09-28T14:51:58.505Z,35.83
2022-09-28T14:54:34.907Z,35.94
2022-09-28T14:57:15.531Z,34.16
2022-09-28T14:59:46.294Z,34.43
2022-09-28T15:02:26.071Z,32.59
2022-09-28T15:05:00.125Z,29.74
2022-09-28T15:07:48.120Z,28.69
2022-09-28T15:10:27.541Z,28.23
2022-09-28T15:12:57.219Z,27.41
2022-09-28T15:15:33.737Z,26.49
2022-09-28T15:18:18.544Z,26.76
2022-09-28T15:20:48.337Z,28.28
2022-09-28T15:23:30.236Z,28.19
2022-09-28T15:25:58.468Z,27.52
2022-09-28T15:28:26.633Z,26.75
2022-09-28T15:31:06.965Z,26.10
2022-09-28T15:33:59.850Z,25.21
2022-09-28T15:36:30.555Z,25.78
2022-09-28T15:39:04.110Z,27.83
2022-09-28T15:41:33.537Z,29.79
2022-09-28T15:44:27.266Z,31.98
2022-09-28T15:47:06.849Z,34.57
2022-09-28T15:49:53.499Z,37.10
2022-09-28T15:52:47.069Z,39.84
2022-09-28T15:55:25.811Z,42.72
2022-09-28T15:58:12.602Z,43.40
2022-09-28T16:00:40.506Z,44.26
2022-09-28T16:03:08.795Z,45.41
2022-09-28T16:05:39.772Z,47.80
2022-09-28T16:08:22.083Z,48.64
2022-09-28T16:11:09.191Z,49.56
2022-09-28T16:13:46.699Z,51.60
2022-09-28T16:16:15.954Z,53.05
2022-09-28T16:18:48.267Z,54.10
2022-09-28T16:21:44.250Z,55.07
2022-09-28T16:24:24.725Z,56.92
2022-09-28T16:26:57.224Z,58.23
2022-09-28T16:29:32.641Z,59.22
2022-09-28T16:32:26.657Z,59.93
2022-09-28T16:35:10.887Z,60.25
2022-09-28T16:37:42.710Z,60.95
2022-09-28T16:40:12.981Z,61.91
2022-09-28T16:42:48.175Z,66.16
2022-09-28T16:45:23.342Z,66.16
2022-09-28T16:47:55.836Z,61.79
2022-09-28T16:50:24.815Z,58.01
2022-09-28T16:53:30.352Z,56.38
2022-09-28T16:55:58.743Z,57.69
2022-09-28T16:58:28.009Z,59.07
2022-09-28T17:00:56.524Z,60.39
2022-09-28T17:03:25.331Z,60.70
2022-09-28T17:05:53.747Z,61.28
2022-09-28T17:08:23.869Z,65.51
2022-09-28T17:13:47.717Z,60.96
2022-09-28T17:19:20.155Z,55.46
2022-09-28T17:21:48.878Z,56.67
2022-09-28T17:24:17.684Z,57.95
2022-09-28T17:26:49.998Z,59.27
2022-09-28T17:29:18.651Z,59.30
2022-09-28T17:31:47.892Z,59.59
2022-09-28T17:34:16.376Z,60.96
2022-09-28T17:36:45.024Z,62.42
2022-09-28T17:39:15.071Z,63.42
2022-09-28T17:41:43.624Z,58.52
2022-09-28T17:44:16.396Z,57.63
2022-09-28T17:46:49.756Z,58.42
2022-09-28T17:49:17.682Z,60.03
2022-09-28T17:51:45.769Z,60.82
2022-09-28T17:54:16.888Z,61.20
2022-09-28T17:56:46.279Z,62.97
2022-09-28T17:59:17.480Z,64.74
2022-09-28T18:01:45.543Z,59.59
2022-09-28T18:04:33.380Z,57.50
2022-09-28T18:07:02.791Z,58.07
2022-09-28T18:09:30.637Z,59.52
2022-09-28T18:12:01.016Z,60.32
2022-09-28T18:14:29.122Z,61.93
2022-09-28T18:16:57.297Z,63.24
2022-09-28T18:19:28.648Z,62.06
2022-09-28T18:21:59.927Z,58.00
2022-09-28T18:24:28.090Z,57.32
2022-09-28T18:26:55.902Z,57.98
2022-09-28T18:29:23.966Z,58.62
2022-09-28T18:31:52.132Z,59.83
2022-09-28T18:34:20.054Z,60.37
2022-09-28T18:36:48.336Z,61.13
2022-09-28T18:39:16.143Z,65.24
2022-09-28T18:41:43.902Z,65.30
2022-09-28T18:44:11.666Z,61.95
2022-09-28T18:46:42.637Z,57.87
2022-09-28T18:49:11.184Z,56.10
2022-09-28T18:51:39.016Z,56.93
2022-09-28T18:54:07.713Z,57.79
2022-09-28T18:56:38.035Z,58.86
2022-09-28T18:59:17.413Z,59.60
2022-09-28T19:01:46.632Z,60.20
2022-09-28T19:04:15.339Z,61.16
2022-09-28T19:06:44.801Z,61.85
2022-09-28T19:09:13.433Z,64.13
2022-09-28T19:11:43.941Z,65.33
2022-09-28T19:14:15.132Z,60.77
2022-09-28T19:16:44.469Z,57.13
2022-09-28T19:19:14.705Z,57.02
2022-09-28T19:21:44.949Z,58.41
2022-09-28T19:24:15.736Z,59.63
2022-09-28T19:26:44.374Z,61.36
2022-09-28T19:29:12.936Z,64.79
2022-09-28T19:31:43.244Z,65.14
2022-09-28T19:34:13.502Z,61.33
2022-09-28T19:36:42.632Z,57.12
2022-09-28T19:39:14.571Z,55.22
2022-09-28T19:41:51.507Z,56.24
2022-09-28T19:44:27.639Z,57.47
2022-09-28T19:47:06.837Z,58.62
2022-09-28T19:49:38.048Z,59.38
2022-09-28T19:52:16.099Z,60.61
2022-09-28T19:55:01.015Z,61.00
2022-09-28T19:57:31.115Z,65.31
2022-09-28T20:00:03.266Z,65.24
2022-09-28T20:02:36.314Z,60.37
2022-09-28T20:05:04.452Z,54.75
2022-09-28T20:07:34.210Z,53.97
2022-09-28T20:10:02.244Z,55.02
2022-09-28T20:12:30.471Z,55.90
2022-09-28T20:14:58.289Z,56.98
2022-09-28T20:17:26.118Z,57.78
2022-09-28T20:19:54.003Z,58.78
2022-09-28T20:22:21.950Z,59.28
2022-09-28T20:24:49.754Z,60.09
2022-09-28T20:27:17.621Z,60.65
2022-09-28T20:29:45.434Z,61.71
2022-09-28T20:32:14.267Z,66.45
2022-09-28T20:34:42.081Z,67.00
2022-09-28T20:37:09.876Z,61.87
2022-09-28T20:39:40.450Z,55.97
2022-09-28T20:42:11.990Z,55.35
2022-09-28T20:44:39.746Z,56.13
2022-09-28T20:47:07.526Z,58.40
2022-09-28T20:49:35.354Z,59.96
2022-09-28T20:52:03.230Z,61.25
2022-09-28T20:54:31.034Z,63.45
2022-09-28T20:56:58.870Z,64.10
2022-09-28T20:59:27.758Z,61.92
2022-09-28T21:01:55.930Z,58.33
2022-09-28T21:04:24.235Z,56.42
2022-09-28T21:06:53.138Z,57.96
2022-09-28T21:09:20.882Z,59.90
2022-09-28T21:11:48.664Z,61.53
2022-09-28T21:14:16.499Z,64.32
2022-09-28T21:16:44.326Z,65.05
2022-09-28T21:19:12.088Z,62.99
2022-09-28T21:21:39.884Z,58.77
2022-09-28T21:24:08.270Z,56.13
2022-09-28T21:26:36.420Z,57.76
2022-09-28T21:29:06.566Z,58.35
2022-09-28T21:31:39.577Z,60.85
2022-09-28T21:34:13.295Z,61.78
2022-09-28T21:36:43.350Z,64.96
2022-09-28T21:39:11.104Z,65.73
2022-09-28T21:41:39.386Z,61.52
2022-09-28T21:44:08.186Z,56.66
2022-09-28T21:46:37.091Z,56.08
2022-09-28T21:49:07.520Z,57.61
2022-09-28T21:51:35.769Z,59.36
2022-09-28T21:54:03.821Z,60.52
2022-09-28T21:56:31.773Z,61.00
2022-09-28T21:59:01.201Z,63.91
2022-09-28T22:01:29.333Z,64.96
2022-09-28T22:03:57.507Z,60.91
2022-09-28T22:06:29.673Z,56.95
2022-09-28T22:08:57.389Z,55.42
2022-09-28T22:11:27.778Z,57.12
2022-09-28T22:13:58.035Z,58.36
2022-09-28T22:16:28.462Z,58.95
2022-09-28T22:18:57.146Z,60.75
2022-09-28T22:21:27.724Z,65.04
2022-09-28T22:24:01.076Z,65.70
2022-09-28T22:26:31.757Z,61.27
2022-09-28T22:29:01.936Z,55.45
2022-09-28T22:31:35.162Z,54.14
2022-09-28T22:34:03.762Z,54.73
2022-09-28T22:36:32.541Z,56.35
2022-09-28T22:39:00.516Z,57.34
2022-09-28T22:41:28.485Z,58.43
2022-09-28T22:43:56.785Z,59.17
2022-09-28T22:46:26.783Z,59.97
2022-09-28T22:48:56.730Z,60.68
2022-09-28T22:51:26.120Z,61.61
2022-09-28T22:53:56.554Z,65.62
2022-09-28T22:56:24.623Z,65.64
2022-09-28T22:58:52.484Z,60.82
2022-09-28T23:01:55.878Z,55.40
2022-09-28T23:04:23.956Z,53.92
2022-09-28T23:06:53.211Z,55.12
2022-09-28T23:09:21.005Z,56.14
2022-09-28T23:11:48.897Z,57.35
2022-09-28T23:14:16.753Z,58.31
2022-09-28T23:16:44.590Z,59.20
2022-09-28T23:19:12.462Z,59.88
2022-09-28T23:21:40.817Z,60.48
2022-09-28T23:24:11.081Z,61.13
2022-09-28T23:26:43.130Z,64.76
2022-09-28T23:29:11.632Z,65.13
2022-09-28T23:31:41.168Z,61.00
2022-09-28T23:34:11.088Z,55.70
2022-09-28T23:36:39.679Z,54.29
2022-09-28T23:39:09.662Z,55.18
2022-09-28T23:41:40.000Z,56.38
2022-09-28T23:44:08.125Z,57.45
2022-09-28T23:46:36.297Z,58.23
2022-09-28T23:49:07.665Z,58.91
2022-09-28T23:51:37.968Z,59.66
2022-09-28T23:54:06.812Z,60.02
2022-09-28T23:56:34.738Z,60.49
2022-09-28T23:59:06.089Z,61.09
